Time;durP1;ratioP1;P1;durP2;ratioP2;P2;SDS_P1;SDS_P2;PMS_P1;PMS_P2;Temp;Humidity;BMP_temperature;BMP_pressure;BME280_temperature;BME280_humidity;BME280_pressure;Samples;Min_cycle;Max_cycle;Signal;HPM_P1;HPM_P2
2022/11/02 00:01:08;;;;;;;;;;;;;;;9.71;100.00;98400.69;7384639;19;20812;-55
2022/11/02 00:03:41;;;;;;;;;;;;;;;9.70;100.00;98396.38;7385757;19;20352;-52
2022/11/02 00:06:14;;;;;;;;;;;;;;;9.92;100.00;98402.16;7379112;19;19922;-49
2022/11/02 00:08:47;;;;;;;;;;;;;;;9.20;100.00;98417.38;7387264;19;19919;-52
2022/11/02 00:11:20;;;;;;;;;;;;;;;9.41;100.00;98420.66;7391431;19;19921;-53
2022/11/02 00:13:52;;;;;;;;;;;;;;;9.53;100.00;98412.13;7391753;19;19936;-48
2022/11/02 00:16:28;;;;;;;;;;;;;;;9.36;100.00;98407.75;7391931;19;19950;-48
2022/11/02 00:19:03;;;;;;;;;;;;;;;9.14;100.00;98404.53;7384947;19;20342;-53
2022/11/02 00:21:36;;;;;;;;;;;;;;;9.33;100.00;98399.22;7389511;19;19917;-49
2022/11/02 00:24:10;;;;;;;;;;;;;;;9.46;100.00;98395.84;7389047;19;19919;-48
2022/11/02 00:26:43;;;;;;;;;;;;;;;9.51;100.00;98392.97;7392121;19;19918;-47
2022/11/02 00:29:16;;;;;;;;;;;;;;;9.26;100.00;98403.06;7389092;19;19987;-48
2022/11/02 00:31:51;;;;;;;;;;;;;;;9.50;100.00;98399.16;7383218;19;19975;-48
2022/11/02 00:34:24;;;;;;;;;;;;;;;9.59;100.00;98393.44;7391037;19;19914;-48
2022/11/02 00:36:57;;;;;;;;;;;;;;;9.68;100.00;98390.34;7390502;19;19915;-52
2022/11/02 00:39:30;;;;;;;;;;;;;;;9.72;100.00;98405.00;7386333;19;19919;-50
2022/11/02 00:42:06;;;;;;;;;;;;;;;9.57;100.00;98403.16;7388971;19;19919;-47
2022/11/02 00:44:39;;;;;;;;;;;;;;;9.66;100.00;98400.09;7385432;19;19919;-47
2022/11/02 00:47:17;;;;;;;;;;;;;;;9.67;100.00;98409.66;7388760;19;19911;-51
2022/11/02 00:49:50;;;;;;;;;;;;;;;9.53;100.00;98412.97;7389766;19;19926;-48
2022/11/02 00:52:23;;;;;;;;;;;;;;;9.58;100.00;98408.31;7389257;19;19922;-50
2022/11/02 00:54:58;;;;;;;;;;;;;;;9.48;100.00;98416.78;7389062;19;19915;-49
2022/11/02 00:57:30;;;;;;;;;;;;;;;9.61;100.00;98408.22;7381985;19;20430;-51
2022/11/02 01:00:06;;;;;;;;;;;;;;;9.31;100.00;98422.91;7384883;19;19922;-48
2022/11/02 01:02:42;;;;;;;;;;;;;;;9.32;100.00;98413.25;7390764;19;19922;-52
2022/11/02 01:05:16;;;;;;;;;;;;;;;9.11;100.00;98411.75;7389943;19;19944;-48
2022/11/02 01:07:53;;;;;;;;;;;;;;;9.21;100.00;98421.69;7385245;19;19922;-52
2022/11/02 01:10:27;;;;;;;;;;;;;;;9.31;100.00;98416.78;7381978;19;20408;-49
2022/11/02 01:12:59;;;;;;;;;;;;;;;9.15;100.00;98418.53;7389281;19;19915;-50
2022/11/02 01:15:32;;;;;;;;;;;;;;;8.95;100.00;98430.03;7384791;19;19962;-57
2022/11/02 01:18:08;;;;;;;;;;;;;;;9.21;100.00;98420.81;7387169;19;20273;-46
2022/11/02 01:20:40;;;;;;;;;;;;;;;9.04;100.00;98429.53;7383590;19;19930;-48
2022/11/02 01:23:13;;;;;;;;;;;;;;;8.87;100.00;98433.94;7383326;19;19919;-49
2022/11/02 01:25:50;;;;;;;;;;;;;;;8.98;100.00;98423.75;7390452;19;20272;-50
2022/11/02 01:28:26;;;;;;;;;;;;;;;8.84;100.00;98427.09;7383120;19;19982;-57
2022/11/02 01:30:59;;;;;;;;;;;;;;;8.98;100.00;98421.16;7387392;19;19911;-47
2022/11/02 01:33:34;;;;;;;;;;;;;;;9.11;100.00;98430.09;7387675;19;19919;-47
2022/11/02 01:36:09;;;;;;;;;;;;;;;8.93;100.00;98425.78;7384679;19;19939;-50
2022/11/02 01:38:42;;;;;;;;;;;;;;;9.18;100.00;98413.09;7388317;19;19911;-55
2022/11/02 01:41:16;;;;;;;;;;;;;;;8.90;100.00;98426.78;7384278;19;20369;-57
2022/11/02 01:43:52;;;;;;;;;;;;;;;8.92;100.00;98422.31;7389863;19;19919;-49
2022/11/02 01:46:28;;;;;;;;;;;;;;;9.01;100.00;98424.44;7388992;19;19922;-50
2022/11/02 01:49:06;;;;;;;;;;;;;;;9.14;100.00;98424.69;7385481;19;20010;-53
2022/11/02 01:51:41;;;;;;;;;;;;;;;8.91;100.00;98427.63;7388695;19;19922;-52
2022/11/02 01:54:16;;;;;;;;;;;;;;;8.88;100.00;98422.53;7380696;19;19919;-51
2022/11/02 01:56:51;;;;;;;;;;;;;;;9.08;100.00;98423.22;7384031;19;19930;-53
2022/11/02 01:59:27;;;;;;;;;;;;;;;8.95;100.00;98421.28;7383179;19;20323;-55
2022/11/02 02:02:00;;;;;;;;;;;;;;;9.22;100.00;98427.78;7386257;19;19966;-53
2022/11/02 02:04:35;;;;;;;;;;;;;;;8.86;100.00;98419.16;7387317;19;20248;-50
2022/11/02 02:07:08;;;;;;;;;;;;;;;8.88;100.00;98426.00;7383663;19;19923;-51
2022/11/02 02:09:41;;;;;;;;;;;;;;;8.58;100.00;98434.53;7387440;19;19923;-50
2022/11/02 02:12:14;;;;;;;;;;;;;;;8.89;100.00;98434.72;7383317;19;19915;-51
2022/11/02 02:14:47;;;;;;;;;;;;;;;8.76;100.00;98433.63;7388593;19;19919;-51
2022/11/02 02:17:29;;;;;;;;;;;;;;;8.69;100.00;98434.84;7384314;19;19914;-51
2022/11/02 02:20:10;;;;;;;;;;;;;;;8.33;100.00;98435.72;7383080;19;19918;-49
2022/11/02 02:22:49;;;;;;;;;;;;;;;8.26;100.00;98434.31;7387234;19;20385;-49
2022/11/02 02:25:31;;;;;;;;;;;;;;;8.40;100.00;98433.66;7386559;19;19915;-48
2022/11/02 02:28:20;;;;;;;;;;;;;;;8.13;100.00;98440.19;7387440;19;19919;-48
2022/11/02 02:30:56;;;;;;;;;;;;;;;8.08;100.00;98434.31;7381614;19;19907;-47
2022/11/02 02:33:35;;;;;;;;;;;;;;;8.18;100.00;98441.69;7385204;19;19914;-50
2022/11/02 02:36:12;;;;;;;;;;;;;;;8.07;100.00;98443.94;7385601;19;19911;-48
2022/11/02 02:38:48;;;;;;;;;;;;;;;8.16;100.00;98440.91;7387663;19;19961;-49
2022/11/02 02:41:26;;;;;;;;;;;;;;;8.10;100.00;98435.94;7383452;19;19911;-52
2022/11/02 02:44:03;;;;;;;;;;;;;;;8.09;100.00;98443.88;7387224;19;20396;-52
2022/11/02 02:46:43;;;;;;;;;;;;;;;8.18;100.00;98446.94;7381591;19;20266;-46
2022/11/02 02:49:17;;;;;;;;;;;;;;;8.32;100.00;98449.72;7387185;19;19922;-51
2022/11/02 02:51:53;;;;;;;;;;;;;;;8.10;100.00;98449.03;7379658;19;19914;-50
2022/11/02 02:54:27;;;;;;;;;;;;;;;7.94;100.00;98448.00;7383474;19;20225;-51
2022/11/02 02:57:03;;;;;;;;;;;;;;;8.29;100.00;98451.66;7383138;19;19911;-49
2022/11/02 02:59:43;;;;;;;;;;;;;;;8.06;100.00;98452.72;7384360;19;19915;-49
2022/11/02 03:02:21;;;;;;;;;;;;;;;7.98;100.00;98454.81;7383993;19;20489;-47
2022/11/02 03:04:56;;;;;;;;;;;;;;;8.14;100.00;98460.22;7387304;19;19922;-52
2022/11/02 03:07:32;;;;;;;;;;;;;;;8.09;100.00;98460.44;7381719;19;19923;-53
2022/11/02 03:10:12;;;;;;;;;;;;;;;7.85;100.00;98458.91;7378845;19;19940;-49
2022/11/02 03:12:51;;;;;;;;;;;;;;;8.15;100.00;98460.16;7383088;19;19921;-48
2022/11/02 03:15:31;;;;;;;;;;;;;;;8.19;100.00;98466.94;7378728;19;19918;-53
2022/11/02 03:18:08;;;;;;;;;;;;;;;8.24;100.00;98457.09;7387157;19;19970;-48
2022/11/02 03:20:48;;;;;;;;;;;;;;;7.69;100.00;98464.91;7379338;19;19979;-51
2022/11/02 03:23:25;;;;;;;;;;;;;;;7.78;100.00;98465.34;7381166;19;19915;-52
2022/11/02 03:26:02;;;;;;;;;;;;;;;8.08;100.00;98456.13;7382325;19;19919;-58
2022/11/02 03:28:45;;;;;;;;;;;;;;;7.82;100.00;98464.28;7379908;19;20371;-52
2022/11/02 03:31:25;;;;;;;;;;;;;;;7.80;100.00;98466.13;7382673;19;19967;-58
2022/11/02 03:34:03;;;;;;;;;;;;;;;7.86;100.00;98465.84;7384351;19;19915;-52
2022/11/02 03:36:46;;;;;;;;;;;;;;;7.58;100.00;98470.59;7380460;19;19922;-57
2022/11/02 03:39:23;;;;;;;;;;;;;;;7.82;100.00;98474.75;7382089;19;19915;-48
2022/11/02 03:42:01;;;;;;;;;;;;;;;7.53;100.00;98475.19;7384956;19;19918;-57
2022/11/02 03:44:35;;;;;;;;;;;;;;;7.39;100.00;98474.94;7390412;19;20263;-50
2022/11/02 03:47:13;;;;;;;;;;;;;;;7.68;100.00;98469.28;7392654;19;19970;-52
2022/11/02 03:49:50;;;;;;;;;;;;;;;7.66;100.00;98478.13;7388422;19;20502;-48
2022/11/02 03:52:26;;;;;;;;;;;;;;;8.00;100.00;98473.06;7390785;19;19921;-50
2022/11/02 03:55:08;;;;;;;;;;;;;;;7.97;100.00;98474.06;7385008;19;19919;-50
2022/11/02 03:57:46;;;;;;;;;;;;;;;7.82;100.00;98474.75;7391994;19;20249;-47
2022/11/02 04:00:22;;;;;;;;;;;;;;;7.82;100.00;98485.22;7384581;19;20324;-49
2022/11/02 04:03:10;;;;;;;;;;;;;;;7.44;100.00;98483.47;7390997;19;19921;-50
2022/11/02 04:05:49;;;;;;;;;;;;;;;7.88;100.00;98489.34;7385796;19;19915;-48
2022/11/02 04:08:30;;;;;;;;;;;;;;;7.77;100.00;98481.13;7389839;19;19974;-47
2022/11/02 04:16:44;;;;;;;;;;;;;;;7.52;100.00;98491.81;7390549;19;20250;-48
2022/11/02 04:19:28;;;;;;;;;;;;;;;7.59;100.00;98490.66;7390484;19;19923;-57
2022/11/02 04:27:57;;;;;;;;;;;;;;;7.38;100.00;98504.66;7391256;19;19915;-46
2022/11/02 04:30:35;;;;;;;;;;;;;;;7.76;100.00;98488.13;7391516;19;19910;-53
2022/11/02 04:36:04;;;;;;;;;;;;;;;7.35;100.00;98489.06;7390073;19;19911;-51
2022/11/02 04:38:40;;;;;;;;;;;;;;;7.41;100.00;98488.81;7389220;19;19982;-56
2022/11/02 04:44:18;;;;;;;;;;;;;;;7.54;100.00;98492.59;7381097;19;20324;-49
2022/11/02 04:46:58;;;;;;;;;;;;;;;7.42;100.00;98495.75;7390364;19;19922;-48
2022/11/02 04:49:37;;;;;;;;;;;;;;;7.57;100.00;98495.09;7384065;19;19918;-51
2022/11/02 04:52:15;;;;;;;;;;;;;;;7.53;100.00;98503.13;7387631;19;20513;-53
2022/11/02 04:54:54;;;;;;;;;;;;;;;7.31;100.00;98502.34;7382069;19;20021;-52
2022/11/02 04:57:27;;;;;;;;;;;;;;;7.45;100.00;98513.94;7390323;19;20316;-52
2022/11/02 05:00:00;;;;;;;;;;;;;;;7.30;100.00;98501.50;7386489;19;19943;-55
2022/11/02 05:02:37;;;;;;;;;;;;;;;7.43;100.00;98502.66;7388867;19;20356;-54
2022/11/02 05:05:11;;;;;;;;;;;;;;;7.51;100.00;98505.81;7386893;19;20005;-52
2022/11/02 05:07:47;;;;;;;;;;;;;;;8.18;100.00;98506.31;7381680;19;19970;-54
2022/11/02 05:10:20;;;;;;;;;;;;;;;7.65;100.00;98508.69;7387629;19;19918;-52
2022/11/02 05:13:01;;;;;;;;;;;;;;;7.68;100.00;98505.06;7383642;19;20034;-58
2022/11/02 05:15:38;;;;;;;;;;;;;;;7.68;100.00;98503.31;7386569;19;20379;-53
2022/11/02 05:18:12;;;;;;;;;;;;;;;7.40;100.00;98502.78;7387869;19;19914;-53
2022/11/02 05:20:45;;;;;;;;;;;;;;;7.81;100.00;98508.88;7387067;19;19927;-49
2022/11/02 05:23:22;;;;;;;;;;;;;;;7.60;100.00;98517.66;7386731;19;19926;-50
2022/11/02 05:25:59;;;;;;;;;;;;;;;7.40;100.00;98508.03;7383090;19;19983;-52
2022/11/02 05:28:38;;;;;;;;;;;;;;;7.44;100.00;98517.47;7385456;19;19923;-49
2022/11/02 05:31:15;;;;;;;;;;;;;;;7.75;100.00;98527.44;7381839;19;20320;-55
2022/11/02 05:33:49;;;;;;;;;;;;;;;8.02;100.00;98523.63;7382568;19;19925;-52
2022/11/02 05:36:26;;;;;;;;;;;;;;;7.49;100.00;98518.13;7383129;19;19919;-59
2022/11/02 05:39:01;;;;;;;;;;;;;;;7.47;100.00;98529.56;7385079;19;19910;-52
2022/11/02 05:41:34;;;;;;;;;;;;;;;7.56;100.00;98531.78;7385361;19;19911;-56
2022/11/02 05:44:13;;;;;;;;;;;;;;;7.84;100.00;98530.50;7380074;19;20389;-53
2022/11/02 05:46:46;;;;;;;;;;;;;;;7.79;100.00;98522.00;7384468;19;19911;-52
2022/11/02 05:49:18;;;;;;;;;;;;;;;7.90;100.00;98525.00;7382302;19;19906;-59
2022/11/02 05:51:51;;;;;;;;;;;;;;;8.35;100.00;98524.75;7385170;19;19915;-52
2022/11/02 05:54:27;;;;;;;;;;;;;;;7.90;100.00;98527.63;7383415;19;19938;-55
2022/11/02 05:57:02;;;;;;;;;;;;;;;7.99;100.00;98529.81;7384202;19;20431;-54
2022/11/02 05:59:38;;;;;;;;;;;;;;;8.19;100.00;98537.69;7385575;19;20776;-55
2022/11/02 06:02:11;;;;;;;;;;;;;;;7.83;100.00;98538.44;7377555;19;19907;-56
2022/11/02 06:04:43;;;;;;;;;;;;;;;8.24;100.00;98535.69;7383891;19;19914;-55
2022/11/02 06:07:16;;;;;;;;;;;;;;;7.96;100.00;98530.00;7379984;19;19963;-52
2022/11/02 06:09:51;;;;;;;;;;;;;;;8.29;100.00;98533.72;7383075;19;20243;-51
2022/11/02 06:12:24;;;;;;;;;;;;;;;8.23;100.00;98535.75;7386088;19;19911;-54
2022/11/02 06:14:57;;;;;;;;;;;;;;;8.43;100.00;98528.69;7380099;19;19915;-59
2022/11/02 06:17:30;;;;;;;;;;;;;;;8.76;100.00;98528.88;7384785;19;20244;-51
2022/11/02 06:20:03;;;;;;;;;;;;;;;8.58;100.00;98526.28;7385438;19;19918;-56
2022/11/02 06:22:43;;;;;;;;;;;;;;;8.75;100.00;98526.34;7379718;19;19960;-53
2022/11/02 06:25:20;;;;;;;;;;;;;;;8.54;100.00;98528.19;7383927;19;19941;-51
2022/11/02 06:27:56;;;;;;;;;;;;;;;8.06;100.00;98536.53;7380528;19;19944;-53
2022/11/02 06:30:32;;;;;;;;;;;;;;;8.06;100.00;98544.38;7384523;19;19949;-53
2022/11/02 06:33:05;;;;;;;;;;;;;;;8.33;100.00;98543.16;7382009;19;19925;-55
2022/11/02 06:35:38;;;;;;;;;;;;;;;8.91;100.00;98543.88;7383297;19;19919;-52
2022/11/02 06:38:10;;;;;;;;;;;;;;;8.63;100.00;98545.28;7387630;19;19935;-52
2022/11/02 06:40:46;;;;;;;;;;;;;;;8.97;100.00;98553.22;7380419;19;20320;-54
2022/11/02 06:43:19;;;;;;;;;;;;;;;9.00;100.00;98547.84;7386794;19;19914;-53
2022/11/02 06:45:54;;;;;;;;;;;;;;;8.72;100.00;98547.44;7383473;19;19946;-58
2022/11/02 06:48:27;;;;;;;;;;;;;;;8.83;100.00;98555.66;7384336;19;19918;-55
2022/11/02 06:51:00;;;;;;;;;;;;;;;8.87;100.00;98549.34;7387134;19;19935;-54
2022/11/02 06:53:35;;;;;;;;;;;;;;;8.73;100.00;98549.13;7376385;19;19944;-53
2022/11/02 06:56:11;;;;;;;;;;;;;;;8.95;100.00;98547.19;7384848;19;20170;-52
2022/11/02 06:58:44;;;;;;;;;;;;;;;9.03;100.00;98552.91;7379961;19;20319;-58
2022/11/02 07:01:16;;;;;;;;;;;;;;;9.09;100.00;98542.13;7384850;19;20174;-54
2022/11/02 07:03:49;;;;;;;;;;;;;;;8.88;100.00;98558.91;7381338;19;19970;-51
2022/11/02 07:06:22;;;;;;;;;;;;;;;8.73;100.00;98550.00;7377492;19;19925;-55
2022/11/02 07:08:55;;;;;;;;;;;;;;;8.73;100.00;98549.13;7383745;19;20264;-53
2022/11/02 07:11:32;;;;;;;;;;;;;;;8.86;100.00;98551.09;7383651;19;19974;-54
2022/11/02 07:14:04;;;;;;;;;;;;;;;8.99;100.00;98546.97;7380056;19;20348;-55
2022/11/02 07:16:37;;;;;;;;;;;;;;;9.05;100.00;98546.69;7383459;19;20258;-54
2022/11/02 07:19:10;;;;;;;;;;;;;;;9.12;100.00;98549.84;7394950;19;19923;-55
2022/11/02 07:21:43;;;;;;;;;;;;;;;9.20;100.00;98551.19;7398245;19;19919;-54
2022/11/02 07:24:15;;;;;;;;;;;;;;;9.42;100.00;98548.34;7397333;19;19923;-53
2022/11/02 07:26:53;;;;;;;;;;;;;;;9.38;100.00;98554.66;7393588;19;19955;-53
2022/11/02 07:29:26;;;;;;;;;;;;;;;9.30;100.00;98554.19;7396596;19;19971;-55
2022/11/02 07:32:02;;;;;;;;;;;;;;;9.59;100.00;98543.09;7391604;19;20405;-53
2022/11/02 07:34:35;;;;;;;;;;;;;;;9.56;100.00;98546.69;7394606;19;19927;-55
2022/11/02 07:37:08;;;;;;;;;;;;;;;9.75;100.00;98546.66;7396897;19;19935;-49
2022/11/02 07:39:41;;;;;;;;;;;;;;;9.95;100.00;98541.19;7395134;19;19915;-51
2022/11/02 07:42:16;;;;;;;;;;;;;;;9.82;100.00;98545.41;7384125;19;20335;-54
2022/11/02 07:44:50;;;;;;;;;;;;;;;10.09;100.00;98546.59;7387483;19;19907;-54
2022/11/02 07:47:23;;;;;;;;;;;;;;;10.36;100.00;98542.50;7393045;19;19942;-52
2022/11/02 07:49:57;;;;;;;;;;;;;;;10.38;100.00;98536.22;7392913;19;19935;-48
2022/11/02 07:52:30;;;;;;;;;;;;;;;10.13;100.00;98545.50;7391077;19;19926;-52
2022/11/02 07:55:03;;;;;;;;;;;;;;;10.17;100.00;98534.75;7395768;19;19951;-48
2022/11/02 07:57:38;;;;;;;;;;;;;;;10.22;100.00;98524.81;7392184;19;19929;-58
2022/11/02 08:00:12;;;;;;;;;;;;;;;10.27;100.00;98524.59;7394268;19;19934;-50
2022/11/02 08:02:45;;;;;;;;;;;;;;;10.38;100.00;98527.47;7396704;19;19936;-51
2022/11/02 08:05:18;;;;;;;;;;;;;;;10.49;100.00;98527.75;7391848;19;19926;-53
2022/11/02 08:07:51;;;;;;;;;;;;;;;10.60;100.00;98528.00;7398818;19;20303;-49
2022/11/02 08:10:24;;;;;;;;;;;;;;;10.28;100.00;98531.53;7393519;19;19923;-55
2022/11/02 08:12:59;;;;;;;;;;;;;;;10.40;100.00;98534.34;7397653;19;19915;-52
2022/11/02 08:15:32;;;;;;;;;;;;;;;10.35;100.00;98536.38;7401018;19;19922;-51
2022/11/02 08:18:05;;;;;;;;;;;;;;;10.50;100.00;98524.19;7394558;19;19999;-52
2022/11/02 08:20:40;;;;;;;;;;;;;;;10.80;100.00;98523.34;7400009;19;19914;-53
2022/11/02 08:23:12;;;;;;;;;;;;;;;10.61;100.00;98527.06;7396694;19;19922;-54
2022/11/02 08:25:45;;;;;;;;;;;;;;;10.88;100.00;98530.81;7398463;19;19926;-52
2022/11/02 08:28:22;;;;;;;;;;;;;;;10.88;100.00;98520.28;7398137;19;19987;-51
2022/11/02 08:30:54;;;;;;;;;;;;;;;11.06;100.00;98519.28;7387411;19;19943;-52
2022/11/02 08:33:27;;;;;;;;;;;;;;;10.65;100.00;98525.97;7393088;19;19923;-53
2022/11/02 08:36:00;;;;;;;;;;;;;;;10.76;100.00;98521.81;7389550;19;19933;-58
2022/11/02 08:38:33;;;;;;;;;;;;;;;10.87;100.00;98511.53;7392541;19;20399;-52
2022/11/02 08:41:06;;;;;;;;;;;;;;;11.11;100.00;98523.34;7391526;19;19982;-53
2022/11/02 08:43:41;;;;;;;;;;;;;;;11.05;100.00;98520.19;7386380;19;19925;-50
2022/11/02 08:46:14;;;;;;;;;;;;;;;11.07;100.00;98516.53;7392102;19;19911;-53
2022/11/02 08:48:47;;;;;;;;;;;;;;;11.06;100.00;98517.47;7391947;19;19931;-54
2022/11/02 08:51:20;;;;;;;;;;;;;;;11.14;100.00;98519.69;7390614;19;19919;-53
2022/11/02 08:53:53;;;;;;;;;;;;;;;10.87;100.00;98514.16;7393268;19;19926;-52
2022/11/02 08:56:27;;;;;;;;;;;;;;;11.27;100.00;98520.66;7387404;19;19937;-52
2022/11/02 08:59:05;;;;;;;;;;;;;;;11.13;100.00;98515.31;7390983;19;19915;-49
2022/11/02 09:01:38;;;;;;;;;;;;;;;11.00;100.00;98522.25;7391287;19;19919;-47
2022/11/02 09:04:11;;;;;;;;;;;;;;;11.06;100.00;98517.47;7389626;19;20438;-49
2022/11/02 09:06:44;;;;;;;;;;;;;;;11.05;100.00;98513.16;7390945;19;19932;-49
2022/11/02 09:09:17;;;;;;;;;;;;;;;11.56;100.00;98510.13;7385408;19;19952;-52
2022/11/02 09:11:50;;;;;;;;;;;;;;;11.19;100.00;98505.31;7392182;19;19992;-53
2022/11/02 09:14:25;;;;;;;;;;;;;;;11.37;100.00;98508.66;7393216;19;19923;-51
2022/11/02 09:16:58;;;;;;;;;;;;;;;11.71;100.00;98500.44;7388464;19;19918;-51
2022/11/02 09:19:31;;;;;;;;;;;;;;;11.74;100.00;98502.91;7391428;19;19978;-49
2022/11/02 09:22:04;;;;;;;;;;;;;;;11.47;100.00;98500.13;7387730;19;20313;-54
2022/11/02 09:24:37;;;;;;;;;;;;;;;11.41;100.00;98503.13;7389157;19;19915;-51
2022/11/02 09:27:09;;;;;;;;;;;;;;;11.52;100.00;98505.13;7392824;19;20254;-51
2022/11/02 09:29:45;;;;;;;;;;;;;;;11.84;100.00;98495.28;7387653;19;19926;-50
2022/11/02 09:32:17;;;;;;;;;;;;;;;11.64;100.00;98496.47;7390130;19;19915;-53
2022/11/02 09:34:53;;;;;;;;;;;;;;;11.67;100.00;98496.31;7386003;19;19911;-59
2022/11/02 09:37:25;;;;;;;;;;;;;;;11.65;100.00;98496.38;7390200;19;19919;-52
2022/11/02 09:39:58;;;;;;;;;;;;;;;11.70;100.00;98501.38;7392555;19;19919;-51
2022/11/02 09:42:36;;;;;;;;;;;;;;;11.66;100.00;98503.34;7384168;19;20168;-54
2022/11/02 09:45:18;;;;;;;;;;;;;;;11.77;100.00;98494.81;7389463;19;19915;-51
2022/11/02 09:47:53;;;;;;;;;;;;;;;11.50;100.00;98507.84;7384214;19;20356;-48
2022/11/02 09:50:27;;;;;;;;;;;;;;;11.50;100.00;98509.63;7387044;19;19919;-52
2022/11/02 09:53:02;;;;;;;;;;;;;;;11.53;100.00;98510.28;7386605;19;19919;-54
2022/11/02 09:55:37;;;;;;;;;;;;;;;11.77;100.00;98502.72;7389053;19;19922;-51
2022/11/02 09:58:12;;;;;;;;;;;;;;;11.56;100.00;98496.94;7389749;19;20320;-52
2022/11/02 10:00:50;;;;;;;;;;;;;;;11.76;100.00;98500.19;7383152;19;20395;-50
2022/11/02 10:03:26;;;;;;;;;;;;;;;11.64;100.00;98497.34;7387017;19;20319;-48
2022/11/02 10:06:01;;;;;;;;;;;;;;;11.67;100.00;98501.56;7383323;19;20006;-49
2022/11/02 10:08:39;;;;;;;;;;;;;;;11.73;100.00;98495.09;7389200;19;20243;-50
2022/11/02 10:11:15;;;;;;;;;;;;;;;11.74;100.00;98495.00;7385640;19;20399;-47
2022/11/02 10:13:52;;;;;;;;;;;;;;;11.72;100.00;98496.03;7390192;19;19939;-50
2022/11/02 10:16:31;;;;;;;;;;;;;;;11.95;100.00;98495.47;7389158;19;20323;-49
2022/11/02 10:19:04;;;;;;;;;;;;;;;12.14;100.00;98494.25;7389303;19;20910;-52
2022/11/02 10:21:38;;;;;;;;;;;;;;;12.37;100.00;98488.41;7388556;19;19919;-51
2022/11/02 10:24:24;;;;;;;;;;;;;;;11.99;100.00;98497.84;7382885;19;20327;-48
2022/11/02 10:27:02;;;;;;;;;;;;;;;12.15;100.00;98498.59;7386781;19;19913;-52
2022/11/02 10:29:48;;;;;;;;;;;;;;;12.48;100.00;98491.22;7382666;19;20390;-52
2022/11/02 10:32:24;;;;;;;;;;;;;;;12.38;100.00;98495.38;7386133;19;19918;-50
2022/11/02 10:34:57;;;;;;;;;;;;;;;12.14;100.00;98499.53;7382506;19;19918;-52
2022/11/02 10:37:40;;;;;;;;;;;;;;;12.06;100.00;98499.16;7388436;19;19918;-52
2022/11/02 10:40:20;;;;;;;;;;;;;;;11.98;100.00;98493.47;7381722;19;19915;-46
2022/11/02 10:42:58;;;;;;;;;;;;;;;12.13;100.00;98508.41;7385889;19;19915;-51
2022/11/02 10:45:46;;;;;;;;;;;;;;;11.90;100.00;98505.47;7382736;19;19915;-51
2022/11/02 10:48:27;;;;;;;;;;;;;;;11.95;100.00;98500.75;7387918;19;19922;-50
2022/11/02 10:51:03;;;;;;;;;;;;;;;11.96;100.00;98498.03;7384565;19;19919;-50
2022/11/02 10:53:39;;;;;;;;;;;;;;;12.09;100.00;98498.94;7385868;19;20235;-52
2022/11/02 10:56:16;;;;;;;;;;;;;;;12.18;100.00;98493.13;7381765;19;20227;-49
2022/11/02 10:58:50;;;;;;;;;;;;;;;12.31;100.00;98491.44;7384978;19;19927;-50
2022/11/02 11:01:23;;;;;;;;;;;;;;;12.19;100.00;98493.97;7388559;19;19919;-53
2022/11/02 11:04:03;;;;;;;;;;;;;;;12.04;100.00;98497.53;7384199;19;19907;-54
2022/11/02 11:06:37;;;;;;;;;;;;;;;12.02;100.00;98491.53;7388294;19;19919;-50
2022/11/02 11:09:20;;;;;;;;;;;;;;;12.08;100.00;98499.91;7385431;19;20700;-48
2022/11/02 11:12:01;;;;;;;;;;;;;;;12.22;100.00;98486.75;7385504;19;19915;-48
2022/11/02 11:14:35;;;;;;;;;;;;;;;12.22;100.00;98483.25;7383269;19;19922;-53
2022/11/02 11:17:08;;;;;;;;;;;;;;;12.09;100.00;98482.31;7387398;19;19930;-49
2022/11/02 11:19:44;;;;;;;;;;;;;;;12.08;100.00;98485.88;7382402;19;19979;-58
2022/11/02 11:22:30;;;;;;;;;;;;;;;12.07;100.00;98494.72;7386580;19;19943;-47
2022/11/02 11:25:18;;;;;;;;;;;;;;;12.07;100.00;98485.03;7380808;19;20299;-55
2022/11/02 11:27:55;;;;;;;;;;;;;;;12.21;100.00;98470.97;7387688;19;19922;-47
2022/11/02 11:30:32;;;;;;;;;;;;;;;12.17;100.00;98480.88;7381186;19;20240;-48
2022/11/02 11:33:05;;;;;;;;;;;;;;;12.31;100.00;98475.59;7386394;19;20331;-49
2022/11/02 11:35:45;;;;;;;;;;;;;;;12.32;100.00;98472.06;7383259;19;19970;-51
2022/11/02 11:38:20;;;;;;;;;;;;;;;12.21;100.00;98477.13;7386983;19;19932;-51
2022/11/02 11:40:55;;;;;;;;;;;;;;;12.32;100.00;98472.06;7385109;19;19954;-50
2022/11/02 11:43:30;;;;;;;;;;;;;;;12.42;100.00;98475.78;7380294;19;20244;-50
2022/11/02 11:46:04;;;;;;;;;;;;;;;12.36;100.00;98470.06;7382777;19;19919;-52
2022/11/02 11:48:40;;;;;;;;;;;;;;;12.36;100.00;98478.81;7377829;19;19914;-54
2022/11/02 11:51:28;;;;;;;;;;;;;;;12.32;100.00;98471.19;7385417;19;19940;-52
2022/11/02 11:54:22;;;;;;;;;;;;;;;12.65;100.00;98472.53;7378386;19;19915;-54
2022/11/02 11:56:56;;;;;;;;;;;;;;;12.43;100.00;98469.59;7382870;19;19943;-53
2022/11/02 12:17:08;;;;;;;518.10;464.33;;;;;;;12.44;100.00;98460.72;7410654;19;20357;-47
2022/11/02 12:19:59;;;;;;;602.47;538.30;;;;;;;12.57;100.00;98459.00;7417893;19;20014;-47
2022/11/02 12:22:42;;;;;;;514.95;463.13;;;;;;;12.40;100.00;98461.00;7421943;19;20481;-47
2022/11/02 12:25:32;;;;;;;519.88;467.50;;;;;;;12.45;100.00;98454.50;7419260;19;20406;-47
2022/11/02 12:28:26;;;;;;;525.20;471.67;;;;;;;12.37;100.00;98453.28;7419224;19;20018;-56
2022/11/02 12:31:09;;;;;;;524.88;472.35;;;;;;;12.30;99.67;98458.09;7423474;19;20014;-48
2022/11/02 12:34:01;;;;;;;522.38;468.90;;;;;;;12.48;100.00;98461.34;7416097;19;20486;-47
2022/11/02 12:36:47;;;;;;;498.00;447.42;;;;;;;12.33;100.00;98450.00;7421166;19;20041;-48
2022/11/02 12:39:33;;;;;;;492.38;441.85;;;;;;;12.35;100.00;98457.81;7421235;19;20019;-47
2022/11/02 12:42:24;;;;;;;514.28;461.67;;;;;;;12.45;100.00;98459.75;7414869;19;20010;-50
2022/11/02 12:45:23;;;;;;;493.27;442.70;;;;;;;12.45;100.00;98443.13;7421798;19;20022;-47
2022/11/02 12:48:04;;;;;;;513.65;462.08;;;;;;;12.46;100.00;98447.44;7421372;19;20018;-48
2022/11/02 12:50:57;;;;;;;505.67;453.80;;;;;;;12.51;100.00;98451.47;7418420;19;20018;-50
2022/11/02 12:53:47;;;;;;;489.77;439.80;;;;;;;12.49;100.00;98441.97;7420149;19;20465;-48
2022/11/02 12:56:26;;;;;;;486.85;437.00;;;;;;;12.57;100.00;98445.81;7421794;19;20030;-49
2022/11/02 12:59:01;;;;;;;496.83;446.73;;;;;;;12.45;100.00;98449.22;7419921;19;20591;-49
2022/11/02 13:01:40;;;;;;;507.60;456.23;;;;;;;12.56;100.00;98445.91;7420534;19;20512;-48
2022/11/02 13:04:22;;;;;;;491.48;441.52;;;;;;;12.75;100.00;98446.41;7422434;19;20002;-51
2022/11/02 13:07:05;;;;;;;494.42;443.88;;;;;;;12.65;100.00;98451.44;7419637;19;20026;-48
2022/11/02 13:09:46;;;;;;;489.65;440.05;;;;;;;12.42;100.00;98440.66;7421912;19;20038;-48
2022/11/02 13:12:24;;;;;;;499.27;448.35;;;;;;;12.54;100.00;98447.78;7420746;19;20014;-50
2022/11/02 13:15:00;;;;;;;488.98;439.05;;;;;;;12.55;99.43;98452.09;7420170;19;20011;-50
2022/11/02 13:17:41;;;;;;;501.73;450.23;;;;;;;12.53;99.35;98446.94;7386018;19;20031;-49
2022/11/02 13:20:22;;;;;;;483.98;434.60;;;;;;;12.58;99.87;98446.63;7392420;19;20010;-50
2022/11/02 13:23:03;;;;;;;501.73;450.75;;;;;;;12.48;98.41;98446.38;7390130;19;20023;-48
2022/11/02 13:25:41;;;;;;;498.58;448.52;;;;;;;12.48;100.00;98438.47;7391795;19;20367;-50
2022/11/02 13:28:19;;;;;;;511.30;459.88;;;;;;;12.48;99.31;98443.75;7387258;19;20018;-49
2022/11/02 13:30:53;;;;;;;508.85;459.13;;;;;;;12.36;100.00;98434.00;7392633;19;20078;-50
2022/11/02 13:33:33;;;;;;;514.50;463.70;;;;;;;12.52;98.80;98442.59;7387049;19;20014;-50
2022/11/02 13:36:07;;;;;;;505.13;455.55;;;;;;;12.42;100.00;98441.50;7389608;19;20011;-49
2022/11/02 13:38:46;;;;;;;494.65;445.02;;;;;;;12.43;100.00;98440.56;7390546;19;20014;-52
2022/11/02 13:41:33;;;;;;;499.95;450.42;;;;;;;12.39;100.00;98446.13;7391342;19;20026;-49
2022/11/02 13:44:27;;;;;;;520.97;469.48;;;;;;;12.47;100.00;98449.97;7387404;19;20019;-51
2022/11/02 13:47:42;;;;;;;492.60;442.98;;;;;;;12.49;100.00;98445.44;7391947;19;20082;-48
2022/11/02 13:50:19;;;;;;;503.80;453.88;;;;;;;12.47;100.00;98442.06;7390896;19;20015;-51